Lapaz, IN (46537)

10:24 PM EDT on September 03, 2015 (GMT -0400)
Marshall County Building | | Change Station
CLOSE
Current Station
Personal Weather Station
Location: Plymouth, IN
Elevation: 814 ft
Nearby Weather Stations

Elev 814 ft 41.34 °N, 86.31 °W | Updated 11 minutes ago

Clear
Clear
79.3 °F
Feels Like 82 °F
N
0.0
Wind Variable Wind from WSW
Gusts 4.0 mph

Today
High -- | Low -- °F
--% Chance of Precip.
Yesterday
High -- | Low -- °F
Precip. -- in
7:13 AM 8:15 PM
Waning Gibbous, 64% visible
Pressure 29.90 in
Visibility 10.0 miles
Clouds Few 5000 ft
Heat Index 82 °F
Dew Point 71 °F
Humidity 76%
Rainfall 0.00 in
Snow Depth Not available.
UV 0.0 out of 12
Pollen 10.10 out of 12
Air Quality Not available.
Flu Activity Not available.
METAR KSBN 040154Z 33006KT 10SM FEW050 24/21 A2991 RMK AO2 SLP123 T02440206
Pressure 29.90 in
Visibility 10.0 miles
Clouds Few 5000 ft
Heat Index 82 °F
Dew Point 71 °F
Humidity 76%
Rainfall 0.00 in
Snow Depth Not available.
UV 0.0 out of 12
Pollen 10.10 out of 12
Air Quality Not available.
Flu Activity Not available.
METAR KSBN 040154Z 33006KT 10SM FEW050 24/21 A2991 RMK AO2 SLP123 T02440206

10-Day Weather Forecast

×

Almanac

Astronomy

Sep. 03, 2015 Rise Set
Actual Time
Civil Twilight
Nautical Twilight
Astronomical Twilight
Moon
Length of Visible Light
Length of Day
Tomorrow will be .
, % of the Moon is Illuminated

Today's Extremes

State Highs State Lows

Community

WunderPhotos

Upload Photos

1,852,101 photos uploaded!

WunderBlogs® & News

Nearby

Air Quality

  Air Quality AQ Index Pollutant
Not available.

Snow Depth

Station Depth Elevation

Earthquake Activity

City Distance Mag. Time & Date
Minimum magnitude displayed is 2.5.

Coastal Water Temperatures

Place Temperature

Stations

Nearby Weather Stations

Station Location Temp. Windchill Dew Point Humidity Wind Precip. Elev Updated Type